• Join FlightAware (Why Join?)
  • Login
  • US Flag 
08:46PM EDT


 

Airport Tracker/Info


-or-


 

Live Flight TrackerFlight Track Log ✈ XOJ549 ✈ 02-May-2013 ✈ KHPN - KLWC

Flight Track Log - Related Links

Times and Time Zones

All times are in EDT time to prevent confusion due to time zone crossing. See the XOJ549 flight status page for this flight to view local times or setup timezone preferences in your user account.

Time Position Orientation Groundspeed Altitude Reporting Facility
EDT Latitude Longitude Course Direction KTS MPH feet Rate Location/Type
01:21PM 41.0333 -73.7333 304° West 211 243 3,400  Level New York TRACON
01:22PM 41.0667 -73.8000 304° West 255 293 7,000 2,760 Climbing New York TRACON
01:23PM 41.0500 -73.9167 259° West 296 341 9,000 2,160 Climbing New York TRACON
01:24PM 41.0167 -74.0167 246° West 307 353 11,400 2,700 Climbing New York TRACON
01:25PM 40.9500 -74.1000 223° Southwest 354 407 14,500 1,800 Climbing New York TRACON
01:26PM 40.8833 -74.2000 229° Southwest 395 455 15,000 720 Climbing New York TRACON
01:28PM 40.8306 -74.5447 259° West 419 482 17,100 600 Climbing New York Center
01:29PM 40.8264 -74.6733 268° West 409 471 17,100  Level New York Center
01:30PM 40.8192 -74.8239 266° West 384 442 17,100 960 Level New York Center
01:31PM 40.8125 -74.9522 266° West 384 442 19,000 2,400 Climbing New York Center
01:32PM 40.8044 -75.1161 266° West 395 455 22,000 2,640 Climbing New York Center
01:33PM 40.7842 -75.2711 260° West 414 476 24,400 2,460 Climbing New York Center
01:34PM 40.7511 -75.4278 254° West 440 506 26,900 2,340 Climbing New York Center
01:35PM 40.6950 -75.5800 244° Southwest 453 521 29,100 2,100 Climbing New York Center
01:36PM 40.6389 -75.7267 243° Southwest 459 528 31,200 1,680 Climbing New York Center
01:37PM 40.5806 -75.8756 243° Southwest 459 528 32,600 1,680 Climbing New York Center
01:38PM 40.5217 -76.0267 243° Southwest 472 543 34,700 2,100 Climbing New York Center
01:39PM 40.4647 -76.1778 244° Southwest 467 537 36,800 1,980 Climbing New York Center
01:40PM 40.4103 -76.3236 244° Southwest 454 522 38,700 1,500 Climbing New York Center
01:41PM 40.3603 -76.4503 243° Southwest 449 517 39,900 840 Climbing New York Center
01:42PM 40.3289 -76.5839 253° West 438 504 40,400 540 Climbing New York Center
01:43PM 40.3178 -76.7628 265° West 445 512 41,100 960 Climbing New York Center
01:44PM 40.3222 -76.9183 272° West 438 504 42,400 900 Climbing New York Center
01:45PM 40.3233 -77.0981 271° West 446 513 43,000 240 Climbing New York Center
01:46PM 40.3239 -77.2425 270° West 446 513 43,000  Level New York Center
01:47PM 40.3233 -77.4003 270° West 441 507 43,000  Level New York Center
01:49PM 40.3228 -77.7889 270° West 460 529 43,000  Level Cleveland Center
01:50PM 40.3244 -77.9522 271° West 460 529 43,000  Level Cleveland Center
01:51PM 40.3217 -78.1103 269° West 460 529 43,000  Level Cleveland Center
01:52PM 40.3211 -78.2711 270° West 454 522 43,000  Level Cleveland Center
01:53PM 40.3219 -78.4292 270° West 449 517 43,000  Level Cleveland Center
01:54PM 40.3208 -78.5897 270° West 443 510 43,000  Level Cleveland Center
01:55PM 40.3192 -78.7478 269° West 443 510 43,000  Level Cleveland Center
01:56PM 40.3175 -78.9083 269° West 443 510 43,000  Level Cleveland Center
01:57PM 40.3156 -79.0719 269° West 443 510 43,000  Level Cleveland Center
01:58PM 40.3156 -79.2353 270° West 443 510 43,000  Level Cleveland Center
01:59PM 40.3172 -79.3767 271° West 438 504 43,000  Level Cleveland Center
02:00PM 40.3147 -79.5375 269° West 438 504 43,000  Level Cleveland Center
02:01PM 40.3117 -79.6956 269° West 438 504 43,000  Level Cleveland Center
02:02PM 40.3086 -79.8533 269° West 438 504 43,000  Level Cleveland Center
02:03PM 40.3036 -80.0358 268° West 452 520 43,000  Level Cleveland Center
02:04PM 40.3000 -80.1992 268° West 463 533 43,000  Level Cleveland Center
02:05PM 40.2983 -80.3625 269° West 449 517 43,000  Level Cleveland Center
02:06PM 40.2964 -80.5206 269° West 449 517 43,000  Level Cleveland Center
02:07PM 40.2944 -80.6783 269° West 439 505 43,000  Level Cleveland Center
02:08PM 40.2900 -80.8361 268° West 439 505 43,000  Level Cleveland Center
02:09PM 40.2853 -80.9914 268° West 439 505 43,000  Level Cleveland Center
02:11PM 40.2739 -81.3089 267° West 440 506 43,000  Level Indianapolis Center
02:12PM 40.2686 -81.4708 268° West 440 506 43,000  Level Indianapolis Center
02:13PM 40.2631 -81.6339 267° West 443 510 43,000  Level Indianapolis Center
02:14PM 40.2575 -81.7967 267° West 444 511 43,000  Level Indianapolis Center
02:15PM 40.2533 -81.9572 268° West 438 504 43,000  Level Indianapolis Center
02:16PM 40.2467 -82.1172 267° West 436 502 43,000  Level Indianapolis Center
02:18PM 40.2403 -82.2903 267° West 435 501 43,000  Level Indianapolis Center
02:19PM 40.2342 -82.4494 267° West 435 501 43,000  Level Indianapolis Center
02:20PM 40.2283 -82.6094 267° West 436 502 43,000  Level Indianapolis Center
02:21PM 40.2214 -82.7686 267° West 435 501 43,000  Level Indianapolis Center
02:22PM 40.2136 -82.9542 267° West 436 502 43,000  Level Indianapolis Center
02:23PM 40.2058 -83.1142 266° West 439 505 43,000  Level Indianapolis Center
02:24PM 40.1981 -83.2733 266° West 438 504 43,000  Level Indianapolis Center
02:25PM 40.1911 -83.4322 267° West 437 503 43,000  Level Indianapolis Center
02:26PM 40.1831 -83.5911 266° West 439 505 43,000  Level Indianapolis Center
02:27PM 40.1742 -83.7750 266° West 436 502 43,000  Level Indianapolis Center
02:28PM 40.1658 -83.9317 266° West 433 498 43,000  Level Indianapolis Center
02:29PM 40.1567 -84.0897 266° West 433 498 43,000  Level Indianapolis Center
02:30PM 40.1475 -84.2456 266° West 429 494 43,000  Level Indianapolis Center
02:31PM 40.1394 -84.4014 266° West 429 494 43,000  Level Indianapolis Center
02:32PM 40.1300 -84.5578 266° West 429 494 43,000  Level Indianapolis Center
02:33PM 40.1211 -84.7158 266° West 432 497 43,000  Level Indianapolis Center
02:34PM 40.1100 -84.8975 265° West 430 495 43,000  Level Indianapolis Center
02:35PM 40.1019 -85.0358 266° West 432 497 43,000  Level Indianapolis Center
02:36PM 40.0892 -85.2233 265° West 434 499 43,000  Level Indianapolis Center
02:37PM 40.0797 -85.3811 266° West 437 503 43,000  Level Indianapolis Center
02:38PM 40.0692 -85.5375 265° West 435 501 43,000  Level Indianapolis Center
02:39PM 40.0597 -85.6944 266° West 437 503 43,000  Level Indianapolis Center
02:40PM 40.0481 -85.8494 264° West 434 499 43,000  Level Indianapolis Center
02:41PM 40.0361 -86.0347 265° West 432 497 43,000  Level Indianapolis Center
02:42PM 40.0297 -86.1267 265° West 435 501 43,000  Level Chicago Center
02:43PM 40.0192 -86.2803 265° West 433 498 43,000  Level Chicago Center
02:44PM 40.0047 -86.4653 264° West 433 498 43,000  Level Chicago Center
02:44PM 40.0022 -86.4961 264° West 433 498 43,000  Level Indianapolis Center
02:45PM 39.9897 -86.6508 264° West 436 502 43,000  Level Indianapolis Center
02:46PM 39.9531 -86.8325 255° West 436 502 43,000  Level Indianapolis Center
02:48PM 39.9058 -86.9772 247° West 439 505 43,000  Level Indianapolis Center
02:49PM 39.8572 -87.1217 246° West 438 504 43,000  Level Indianapolis Center
02:50PM 39.8081 -87.2661 246° West 440 506 43,000  Level Indianapolis Center
02:51PM 39.7583 -87.4106 246° West 441 507 43,000  Level Indianapolis Center
02:52PM 39.7403 -87.5986 263° West 439 505 43,000  Level Indianapolis Center
02:53PM 39.7303 -87.7586 265° West 443 510 43,000  Level Indianapolis Center
02:54PM 39.7208 -87.9161 266° West 443 510 43,000  Level Indianapolis Center
02:55PM 39.7103 -88.0747 265° West 442 509 43,000  Level Indianapolis Center
02:56PM 39.6983 -88.2344 264° West 444 511 43,000  Level Indianapolis Center
02:57PM 39.6867 -88.4256 266° West 444 511 43,000  Level Indianapolis Center
02:58PM 39.6747 -88.5764 264° West 446 513 43,000  Level Kansas City Center
02:59PM 39.6628 -88.7356 264° West 444 511 43,000  Level Kansas City Center
03:00PM 39.6506 -88.8972 264° West 447 514 43,000  Level Kansas City Center
03:01PM 39.6389 -89.0578 265° West 447 514 43,000  Level Kansas City Center
03:02PM 39.6242 -89.2503 264° West 447 514 43,000  Level Kansas City Center
03:03PM 39.6142 -89.3897 265° West 446 513 43,000  Level Kansas City Center
03:04PM 39.5994 -89.5800 264° West 444 511 43,000  Level Kansas City Center
03:05PM 39.5864 -89.7394 264° West 446 513 43,000  Level Kansas City Center
03:06PM 39.5742 -89.8950 264° West 442 509 43,000  Level Kansas City Center
03:07PM 39.5606 -90.0522 264° West 442 509 43,000  Level Kansas City Center
03:08PM 39.5481 -90.2111 264° West 444 511 43,000  Level Kansas City Center
03:09PM 39.5344 -90.3664 264° West 441 507 43,000  Level Kansas City Center
03:10PM 39.5183 -90.5539 264° West 440 506 43,000  Level Kansas City Center
03:11PM 39.5056 -90.7081 264° West 437 503 43,000  Level Kansas City Center
03:12PM 39.4903 -90.8636 263° West 437 503 43,000  Level Kansas City Center
03:13PM 39.4764 -91.0167 263° West 435 501 43,000  Level Kansas City Center
03:14PM 39.4631 -91.1683 264° West 429 494 43,000  Level Kansas City Center
03:15PM 39.4478 -91.3211 263° West 430 495 43,000  Level Kansas City Center
03:16PM 39.4308 -91.5017 263° West 426 490 43,000  Level Kansas City Center
03:17PM 39.4153 -91.6519 262° West 425 489 43,000  Level Kansas City Center
03:18PM 39.4003 -91.8119 263° West 426 490 43,000  Level Kansas City Center
03:20PM 39.3853 -91.9619 263° West 424 488 43,000  Level Kansas City Center
03:21PM 39.3711 -92.1117 263° West 421 484 43,000  Level Kansas City Center
03:22PM 39.3544 -92.2594 262° West 418 481 43,000  Level Kansas City Center
03:23PM 39.3394 -92.4100 263° West 421 484 43,000  Level Kansas City Center
03:24PM 39.3203 -92.5889 262° West 421 484 43,000 -420 Level Kansas City Center
03:25PM 39.3036 -92.7358 262° West 417 480 42,200 -1,140 Descending Kansas City Center
03:26PM 39.2872 -92.8881 262° West 424 488 40,700 -1,500 Descending Kansas City Center
03:27PM 39.2714 -93.0342 262° West 420 483 39,100 -1,560 Descending Kansas City Center
03:28PM 39.2569 -93.1708 262° West 398 458 37,500 -2,040 Descending Kansas City Center
03:29PM 39.2392 -93.3208 261° West 413 475 34,900 -2,640 Descending Kansas City Center
03:30PM 39.2197 -93.4994 262° West 439 505 32,100 -2,580 Descending Kansas City Center
03:31PM 39.2028 -93.6472 262° West 435 501 29,700 -2,520 Descending Kansas City Center
03:32PM 39.1833 -93.8156 262° West 426 490 26,900 -2,520 Descending Kansas City Center
03:33PM 39.1669 -93.9569 262° West 416 479 24,500 -2,520 Descending Kansas City Center
03:34PM 39.1494 -94.1094 262° West 387 445 21,700 -2,520 Descending Kansas City Center
03:35PM 39.1356 -94.2219 261° West 335 386 19,300 -2,640 Descending Kansas City Center
03:36PM 39.1217 -94.3419 262° West 306 352 16,300 -2,880 Descending Kansas City Center
03:37PM 39.1053 -94.4369 257° West 285 328 13,500 -2,760 Descending Kansas City Center
03:38PM 39.0658 -94.5153 237° Southwest 272 313 10,600 -2,760 Descending Kansas City Center
03:39PM 39.0192 -94.6067 237° Southwest 273 314 7,800 -1,860 Descending Kansas City Center
03:40PM 38.9836 -94.6778 237° Southwest 252 290 6,800 -1,560 Descending Kansas City Center
03:41PM 38.9900 -94.7850 274° West 268 308 4,600 -1,380 Descending Kansas City Center
03:42PM 38.9953 -94.8753 274° West 265 305 4,000 -300 Descending Kansas City Center
03:43PM 38.9383 -94.9461 224° Southwest 293 337 4,000 -60 Level Kansas City Center
03:44PM 38.8672 -94.9828 202° Southwest 288 331 3,900 -360 Descending Kansas City Center
03:45PM 38.8408 -95.0483 243° Southwest 226 260 3,300 -360 Descending Kansas City Center
03:46PM 38.8603 -95.1167 290° West 180 207 3,200 -60 Descending Kansas City Center
03:47PM 38.8922 -95.1386 332° Northwest 140 161 3,200 -240 Level Kansas City Center
03:48PM 38.9214 -95.1578 333° Northwest 109 125 2,800 -480 Descending Kansas City Center
03:49PM 38.9419 -95.1700 335° Northwest 89 102 2,300 -540 Descending Kansas City Center
03:50PM 38.9672 -95.1872 332° Northwest 91 105 1,800 -540 Descending Kansas City Center
03:51PM 38.9922 -95.2025 335° Northwest 101 116 1,200 -360 Descending Kansas City Center
03:53PM 39.0169 -95.2194 332° Northwest 102 117 1,100 -120 Descending Kansas City Center